createdAt,value
2022-11-09T00:00:53.202Z,100766.13
2022-11-09T00:03:26.344Z,100763.90
2022-11-09T00:06:00.808Z,100764.66
2022-11-09T00:08:34.543Z,100757.69
2022-11-09T00:11:10.583Z,100765.83
2022-11-09T00:13:45.324Z,100759.75
2022-11-09T00:16:21.616Z,100760.38
2022-11-09T00:18:56.295Z,100756.13
2022-11-09T00:21:29.372Z,100757.42
2022-11-09T00:24:02.358Z,100753.01
2022-11-09T00:26:35.470Z,100757.52
2022-11-09T00:29:08.992Z,100760.11
2022-11-09T00:31:43.712Z,100754.80
2022-11-09T00:34:16.859Z,100751.18
2022-11-09T00:36:50.266Z,100750.52
2022-11-09T00:39:23.209Z,100753.37
2022-11-09T00:41:56.344Z,100750.64
2022-11-09T00:44:29.573Z,100755.29
2022-11-09T00:47:02.430Z,100762.29
2022-11-09T00:49:35.897Z,100764.88
2022-11-09T00:52:09.003Z,100764.48
2022-11-09T00:54:42.432Z,100769.80
2022-11-09T00:57:17.281Z,100781.85
2022-11-09T00:59:54.080Z,100781.99
2022-11-09T01:02:27.227Z,100777.34
2022-11-09T01:05:01.960Z,100775.65
2022-11-09T01:07:35.187Z,100782.65
2022-11-09T01:10:10.311Z,100779.53
2022-11-09T01:12:43.844Z,100780.33
2022-11-09T01:15:16.853Z,100777.97
2022-11-09T01:17:50.234Z,100786.94
2022-11-09T01:20:23.309Z,100788.59
2022-11-09T01:22:57.470Z,100783.15
2022-11-09T01:25:31.994Z,100784.58
2022-11-09T01:28:06.111Z,100787.03
2022-11-09T01:30:43.972Z,100791.94
2022-11-09T01:33:18.159Z,100794.66
2022-11-09T01:35:50.906Z,100794.31
2022-11-09T01:38:23.858Z,100800.39
2022-11-09T01:40:57.243Z,100798.86
2022-11-09T01:43:30.725Z,100799.63
2022-11-09T01:46:25.831Z,100799.22
2022-11-09T01:49:05.242Z,100796.37
2022-11-09T01:51:42.174Z,100796.50
2022-11-09T01:54:24.950Z,100805.69
2022-11-09T01:57:04.172Z,100798.82
2022-11-09T01:59:42.471Z,100803.36
2022-11-09T02:02:15.822Z,100797.39
2022-11-09T02:04:58.990Z,100806.99
2022-11-09T02:07:32.483Z,100805.97
2022-11-09T02:10:28.240Z,100809.22
2022-11-09T02:13:03.031Z,100807.80
2022-11-09T02:15:42.872Z,100808.95
2022-11-09T02:18:14.592Z,100808.95
2022-11-09T02:20:51.719Z,100807.39
2022-11-09T02:23:28.249Z,100807.39
2022-11-09T02:26:10.707Z,100808.95
2022-11-09T02:28:44.803Z,100812.08
2022-11-09T02:31:20.447Z,100817.76
2022-11-09T02:34:07.667Z,100808.06
2022-11-09T02:36:43.137Z,100820.34
2022-11-09T02:39:21.296Z,100817.09
2022-11-09T02:42:10.007Z,100817.88
2022-11-09T02:44:47.168Z,100816.45
2022-11-09T02:47:20.343Z,100823.30
2022-11-09T02:49:53.362Z,100820.61
2022-11-09T02:52:26.579Z,100827.98
2022-11-09T02:55:00.036Z,100829.90
2022-11-09T02:57:33.426Z,100822.66
2022-11-09T03:00:09.393Z,100819.53
2022-11-09T03:02:44.112Z,100817.34
2022-11-09T03:05:17.796Z,100824.35
2022-11-09T03:07:51.550Z,100832.62
2022-11-09T03:10:25.149Z,100827.84
2022-11-09T03:12:58.908Z,100829.89
2022-11-09T03:15:33.794Z,100822.39
2022-11-09T03:18:06.977Z,100821.23
2022-11-09T03:20:40.454Z,100823.42
2022-11-09T03:23:13.584Z,100824.86
2022-11-09T03:25:47.603Z,100822.13
2022-11-09T03:28:20.727Z,100824.22
2022-11-09T03:30:54.855Z,100817.08
2022-11-09T03:33:27.782Z,100821.09
2022-11-09T03:36:02.246Z,100830.30
2022-11-09T03:38:35.685Z,100830.30
2022-11-09T03:41:09.189Z,100832.36
2022-11-09T03:43:44.270Z,100832.48
2022-11-09T03:46:17.202Z,100826.53
2022-11-09T03:48:50.106Z,100826.13
2022-11-09T03:51:23.011Z,100824.03
2022-11-09T03:53:55.967Z,100831.39
2022-11-09T03:56:28.912Z,100831.11
2022-11-09T03:59:02.071Z,100838.38
2022-11-09T04:01:35.194Z,100842.40
2022-11-09T04:04:08.473Z,100846.38
2022-11-09T04:06:41.974Z,100846.49
2022-11-09T04:09:15.201Z,100849.84
2022-11-09T04:11:48.331Z,100850.77
2022-11-09T04:14:21.393Z,100850.77
2022-11-09T04:16:55.199Z,100854.66
2022-11-09T04:19:28.232Z,100855.28
2022-11-09T04:22:01.225Z,100848.80
2022-11-09T04:24:34.445Z,100853.02
2022-11-09T04:27:08.297Z,100859.34
2022-11-09T04:29:42.034Z,100859.34
2022-11-09T04:32:15.250Z,100854.97
2022-11-09T04:34:48.304Z,100854.17
2022-11-09T04:37:21.454Z,100856.28
2022-11-09T04:39:54.668Z,100867.27
2022-11-09T04:42:27.702Z,100871.30
2022-11-09T04:45:00.838Z,100866.91
2022-11-09T04:47:34.147Z,100870.53
2022-11-09T04:50:11.727Z,100875.59
2022-11-09T04:52:44.889Z,100873.81
2022-11-09T04:55:18.000Z,100869.44
2022-11-09T04:57:51.145Z,100879.00
2022-11-09T05:00:26.047Z,100883.55
2022-11-09T05:03:04.258Z,100882.73
2022-11-09T05:05:45.466Z,100888.03
2022-11-09T05:08:15.466Z,100891.23
2022-11-09T05:10:50.183Z,100892.25
2022-11-09T05:13:23.234Z,100884.75
2022-11-09T05:15:56.389Z,100888.48
2022-11-09T05:18:29.483Z,100894.06
2022-11-09T05:21:03.682Z,100892.51
2022-11-09T05:23:54.181Z,100893.95
2022-11-09T05:26:34.217Z,100895.23
2022-11-09T05:29:12.539Z,100905.31
2022-11-09T05:31:52.119Z,100903.48
2022-11-09T05:34:22.302Z,100909.59
2022-11-09T05:36:58.177Z,100917.85
2022-11-09T05:39:29.637Z,100922.02
2022-11-09T05:42:02.639Z,100919.70
2022-11-09T05:44:37.117Z,100922.31
2022-11-09T05:47:10.274Z,100919.92
2022-11-09T05:49:43.967Z,100919.94
2022-11-09T05:52:17.228Z,100917.63
2022-11-09T05:54:50.341Z,100920.86
2022-11-09T05:57:23.265Z,100925.55
2022-11-09T05:59:56.238Z,100927.80
2022-11-09T06:02:32.797Z,100928.98
2022-11-09T06:05:05.915Z,100930.06
2022-11-09T06:07:38.940Z,100932.27
2022-11-09T06:10:12.061Z,100934.86
2022-11-09T06:12:45.511Z,100934.23
2022-11-09T06:15:19.268Z,100934.65
2022-11-09T06:17:57.304Z,100933.50
2022-11-09T06:20:31.270Z,100933.64
2022-11-09T06:23:05.084Z,100931.85
2022-11-09T06:25:37.998Z,100934.85
2022-11-09T06:28:11.136Z,100930.30
2022-11-09T06:30:44.988Z,100927.61
2022-11-09T06:33:18.290Z,100934.23
2022-11-09T06:35:56.199Z,100932.94
2022-11-09T06:38:28.285Z,100933.97
2022-11-09T06:41:03.065Z,100930.88
2022-11-09T06:43:35.864Z,100935.04
2022-11-09T06:46:10.745Z,100938.03
2022-11-09T06:48:43.961Z,100938.42
2022-11-09T06:51:17.256Z,100934.94
2022-11-09T06:53:49.945Z,100927.15
2022-11-09T06:56:23.182Z,100928.20
2022-11-09T06:58:56.007Z,100930.27
2022-11-09T07:01:30.855Z,100931.83
2022-11-09T07:04:03.808Z,100929.50
2022-11-09T07:06:38.245Z,100932.34
2022-11-09T07:09:12.213Z,100930.16
2022-11-09T07:11:45.706Z,100925.47
2022-11-09T07:14:18.865Z,100927.95
2022-11-09T07:16:51.566Z,100934.96
2022-11-09T07:19:25.015Z,100937.14
2022-11-09T07:21:59.357Z,100941.03
2022-11-09T07:24:33.940Z,100941.69
2022-11-09T07:27:06.999Z,100944.54
2022-11-09T07:29:40.518Z,100944.93
2022-11-09T07:32:13.403Z,100942.32
2022-11-09T07:34:47.895Z,100943.00
2022-11-09T07:37:20.883Z,100938.31
2022-11-09T07:39:55.353Z,100938.42
2022-11-09T07:42:28.362Z,100937.23
2022-11-09T07:45:01.326Z,100939.72
2022-11-09T07:47:34.601Z,100941.00
2022-11-09T07:50:08.498Z,100940.97
2022-11-09T07:52:41.678Z,100948.50
2022-11-09T07:55:15.134Z,100947.69
2022-11-09T07:57:48.188Z,100946.28
2022-11-09T08:00:23.821Z,100945.34
2022-11-09T08:02:56.316Z,100951.22
2022-11-09T08:05:30.288Z,100941.33
2022-11-09T08:08:06.698Z,100942.51
2022-11-09T08:10:41.543Z,100940.03
2022-11-09T08:13:16.234Z,100943.41
2022-11-09T08:15:50.429Z,100942.75
2022-11-09T08:18:24.904Z,100941.08
2022-11-09T08:20:58.020Z,100941.83
2022-11-09T08:23:31.064Z,100943.66
2022-11-09T08:26:08.580Z,100938.73
2022-11-09T08:28:41.712Z,100937.68
2022-11-09T08:31:14.904Z,100932.77
2022-11-09T08:33:47.784Z,100937.55
2022-11-09T08:36:21.406Z,100933.04
2022-11-09T08:38:54.088Z,100940.58
2022-11-09T08:41:27.199Z,100937.58
2022-11-09T08:44:00.447Z,100933.66
2022-11-09T08:46:38.379Z,100934.03
2022-11-09T08:49:07.127Z,100933.23
2022-11-09T08:51:39.984Z,100930.23
2022-11-09T08:54:14.392Z,100929.95
2022-11-09T08:56:47.870Z,100928.13
2022-11-09T08:59:20.853Z,100928.63
2022-11-09T09:01:54.112Z,100932.03
2022-11-09T09:04:27.265Z,100935.00
2022-11-09T09:07:00.535Z,100931.10
2022-11-09T09:09:34.962Z,100926.68
2022-11-09T09:12:10.223Z,100922.22
2022-11-09T09:14:43.157Z,100930.27
2022-11-09T09:17:16.631Z,100921.78
2022-11-09T09:19:50.222Z,100928.08
2022-11-09T09:22:23.896Z,100935.31
2022-11-09T09:24:56.904Z,100926.41
2022-11-09T09:27:33.067Z,100925.59
2022-11-09T09:30:07.399Z,100926.48
2022-11-09T09:32:41.850Z,100933.58
2022-11-09T09:35:14.675Z,100934.27
2022-11-09T09:37:47.824Z,100931.89
2022-11-09T09:40:33.894Z,100934.68
2022-11-09T09:43:07.557Z,100931.73
2022-11-09T09:45:42.360Z,100930.41
2022-11-09T09:48:31.864Z,100927.52
2022-11-09T09:51:22.916Z,100924.75
2022-11-09T09:54:07.159Z,100929.95
2022-11-09T09:56:43.675Z,100918.06
2022-11-09T09:59:40.090Z,100925.73
2022-11-09T10:02:29.140Z,100917.23
2022-11-09T10:05:12.181Z,100915.09
2022-11-09T10:08:01.817Z,100918.38
2022-11-09T10:11:15.308Z,100914.70
2022-11-09T10:14:07.205Z,100916.36
2022-11-09T10:16:51.266Z,100914.50
2022-11-09T10:20:00.964Z,100913.62
2022-11-09T10:22:55.450Z,100909.68
2022-11-09T10:25:57.915Z,100916.13
2022-11-09T10:28:13.212Z,100912.56
2022-11-09T10:30:47.048Z,100914.75
2022-11-09T10:33:21.921Z,100912.78
2022-11-09T10:36:08.370Z,100915.24
2022-11-09T10:38:46.417Z,100914.34
2022-11-09T10:41:42.617Z,100907.16
2022-11-09T10:44:33.853Z,100906.16
2022-11-09T10:47:26.654Z,100912.73
2022-11-09T10:50:34.251Z,100911.24
2022-11-09T10:53:28.502Z,100908.88
2022-11-09T10:56:22.240Z,100908.13
2022-11-09T10:59:55.455Z,100913.45
2022-11-09T11:02:48.792Z,100916.03
2022-11-09T11:05:41.433Z,100903.49
2022-11-09T11:08:36.980Z,100909.83
2022-11-09T11:11:37.187Z,100903.16
2022-11-09T11:14:34.667Z,100909.61
2022-11-09T11:17:31.141Z,100900.61
2022-11-09T11:20:32.866Z,100905.93
2022-11-09T11:23:28.174Z,100901.02
2022-11-09T11:26:50.370Z,100908.13
2022-11-09T11:29:49.005Z,100898.41
2022-11-09T11:32:44.248Z,100905.41
2022-11-09T11:35:59.185Z,100894.31
2022-11-09T11:39:13.300Z,100905.11
2022-11-09T11:42:14.668Z,100897.63
2022-11-09T11:45:40.495Z,100905.34
2022-11-09T11:48:44.762Z,100904.93
2022-11-09T11:51:52.875Z,100903.11
2022-11-09T11:55:19.024Z,100906.23
2022-11-09T11:58:39.456Z,100907.83
2022-11-09T12:01:46.756Z,100910.14
2022-11-09T12:04:54.587Z,100904.26
2022-11-09T12:08:21.662Z,100906.56
2022-11-09T12:11:49.451Z,100903.85
2022-11-09T12:15:02.200Z,100907.02
2022-11-09T12:18:06.421Z,100909.28
2022-11-09T12:21:17.061Z,100908.02
2022-11-09T12:24:34.298Z,100911.70
2022-11-09T12:28:03.022Z,100906.38
2022-11-09T12:31:35.683Z,100899.26
2022-11-09T12:34:42.552Z,100904.58
2022-11-09T12:37:44.643Z,100897.77
2022-11-09T12:40:40.100Z,100909.50
2022-11-09T12:44:07.490Z,100904.95
2022-11-09T12:47:09.328Z,100906.14
2022-11-09T12:50:00.410Z,100911.95
2022-11-09T12:52:52.936Z,100909.89
2022-11-09T12:56:00.188Z,100911.89
2022-11-09T12:58:51.483Z,100915.17
2022-11-09T13:01:46.045Z,100917.54
2022-11-09T13:04:37.896Z,100912.85
2022-11-09T13:07:49.977Z,100910.14
2022-11-09T13:10:41.377Z,100908.72
2022-11-09T13:13:32.283Z,100908.48
2022-11-09T13:16:36.459Z,100912.95
2022-11-09T13:19:45.501Z,100917.81
2022-11-09T13:22:44.441Z,100920.36
2022-11-09T13:25:51.863Z,100922.61
2022-11-09T13:28:43.876Z,100919.66
2022-11-09T13:32:07.415Z,100927.76
2022-11-09T13:35:00.594Z,100925.20
2022-11-09T13:37:56.687Z,100926.58
2022-11-09T13:40:50.792Z,100929.41
2022-11-09T13:43:42.849Z,100930.11
2022-11-09T13:46:38.859Z,100935.21
2022-11-09T13:49:39.781Z,100926.95
2022-11-09T13:52:55.164Z,100928.16
2022-11-09T13:55:45.824Z,100937.06
2022-11-09T13:58:40.145Z,100938.56
2022-11-09T14:01:38.719Z,100937.95
2022-11-09T14:04:36.649Z,100935.23
2022-11-09T14:07:35.753Z,100933.84
2022-11-09T14:11:02.338Z,100937.91
2022-11-09T14:14:13.099Z,100946.23
2022-11-09T14:17:23.871Z,100954.84
2022-11-09T14:20:36.871Z,100957.49
2022-11-09T14:23:33.462Z,100959.34
2022-11-09T14:26:26.622Z,100966.27
2022-11-09T14:29:25.652Z,100975.11
2022-11-09T14:32:38.137Z,100974.45
2022-11-09T14:35:36.539Z,100973.67
2022-11-09T14:38:34.962Z,100975.77
2022-11-09T14:41:28.014Z,100976.95
2022-11-09T14:44:36.102Z,100980.74
2022-11-09T14:47:35.909Z,100988.55
2022-11-09T14:50:30.662Z,100987.14
2022-11-09T14:53:28.884Z,100992.84
2022-11-09T14:56:21.720Z,100998.95
2022-11-09T14:59:20.225Z,100996.49
2022-11-09T15:02:19.474Z,100994.77
2022-11-09T15:05:30.534Z,100992.28
2022-11-09T15:08:23.928Z,101001.24
2022-11-09T15:11:15.632Z,100999.82
2022-11-09T15:14:32.030Z,101000.59
2022-11-09T15:17:31.656Z,101005.39
2022-11-09T15:20:30.523Z,101005.25
2022-11-09T15:23:40.469Z,101007.35
2022-11-09T15:26:45.325Z,101012.41
2022-11-09T15:29:44.978Z,101006.29
2022-11-09T15:32:40.584Z,101010.55
2022-11-09T15:35:32.106Z,101004.59
2022-11-09T15:38:41.711Z,101007.95
2022-11-09T15:41:32.976Z,101010.95
2022-11-09T15:44:23.875Z,101008.09
2022-11-09T15:47:39.032Z,101015.87
2022-11-09T15:50:30.088Z,101019.72
2022-11-09T15:53:21.338Z,101025.44
2022-11-09T15:56:23.084Z,101027.36
2022-11-09T15:59:26.348Z,101025.80
2022-11-09T16:02:19.291Z,101031.87
2022-11-09T16:05:10.641Z,101034.72
2022-11-09T16:08:03.315Z,101038.81
2022-11-09T16:10:55.189Z,101039.30
2022-11-09T16:13:46.657Z,101045.48
2022-11-09T16:16:37.501Z,101047.30
2022-11-09T16:19:28.300Z,101049.70
2022-11-09T16:22:19.224Z,101058.27
2022-11-09T16:25:10.854Z,101056.55
2022-11-09T16:28:01.696Z,101059.88
2022-11-09T16:30:53.114Z,101063.48
2022-11-09T16:33:44.570Z,101056.59
2022-11-09T16:36:40.600Z,101065.23
2022-11-09T16:39:30.286Z,101055.63
2022-11-09T16:42:22.290Z,101055.61
2022-11-09T16:45:15.730Z,101053.13
2022-11-09T16:48:10.011Z,101055.98
2022-11-09T16:51:00.500Z,101051.75
2022-11-09T16:53:51.310Z,101047.98
2022-11-09T16:56:42.615Z,101048.99
2022-11-09T16:59:34.442Z,101047.13
2022-11-09T17:02:27.553Z,101050.45
2022-11-09T17:05:18.511Z,101049.23
2022-11-09T17:08:10.664Z,101049.81
2022-11-09T17:11:02.576Z,101047.04
2022-11-09T17:13:59.939Z,101052.07
2022-11-09T17:16:51.508Z,101054.27
2022-11-09T17:19:42.665Z,101049.48
2022-11-09T17:22:34.154Z,101052.22
2022-11-09T17:25:25.413Z,101055.95
2022-11-09T17:28:16.815Z,101057.10
2022-11-09T17:31:17.684Z,101062.49
2022-11-09T17:34:08.871Z,101062.34
2022-11-09T17:37:05.083Z,101059.72
2022-11-09T17:39:53.038Z,101053.11
2022-11-09T17:42:45.507Z,101053.75
2022-11-09T17:45:37.857Z,101052.38
2022-11-09T17:48:29.216Z,101063.23
2022-11-09T17:51:21.851Z,101056.98
2022-11-09T17:54:12.691Z,101062.94
2022-11-09T17:57:03.770Z,101060.85
2022-11-09T17:59:54.530Z,101067.72
2022-11-09T18:02:45.798Z,101067.96
2022-11-09T18:05:45.638Z,101063.64
2022-11-09T18:08:36.726Z,101071.36
2022-11-09T18:11:28.848Z,101071.06
2022-11-09T18:14:20.827Z,101076.45
2022-11-09T18:17:12.031Z,101075.94
2022-11-09T18:20:03.097Z,101070.08
2022-11-09T18:22:55.101Z,101073.56
2022-11-09T18:25:48.190Z,101076.79
2022-11-09T18:28:39.912Z,101075.20
2022-11-09T18:31:31.160Z,101079.39
2022-11-09T18:34:23.135Z,101080.78
2022-11-09T18:37:14.252Z,101075.06
2022-11-09T18:40:06.689Z,101081.77
2022-11-09T18:42:58.033Z,101082.31
2022-11-09T18:45:56.133Z,101083.61
2022-11-09T18:48:54.172Z,101086.80
2022-11-09T18:51:45.901Z,101090.62
2022-11-09T18:54:37.085Z,101086.69
2022-11-09T18:57:27.764Z,101089.33
2022-11-09T19:00:20.413Z,101093.30
2022-11-09T19:03:17.220Z,101093.39
2022-11-09T19:06:11.686Z,101093.98
2022-11-09T19:09:20.649Z,101090.86
2022-11-09T19:12:12.712Z,101090.45
2022-11-09T19:15:05.441Z,101101.62
2022-11-09T19:17:56.920Z,101106.63
2022-11-09T19:20:49.127Z,101101.91
2022-11-09T19:23:41.915Z,101101.52
2022-11-09T19:26:34.842Z,101107.98
2022-11-09T19:29:25.736Z,101113.38
2022-11-09T19:32:16.483Z,101109.20
2022-11-09T19:35:08.331Z,101108.91
2022-11-09T19:38:03.670Z,101105.27
2022-11-09T19:40:55.248Z,101110.28
2022-11-09T19:43:48.062Z,101115.84
2022-11-09T19:46:39.092Z,101118.63
2022-11-09T19:49:29.994Z,101119.55
2022-11-09T19:52:21.304Z,101117.02
2022-11-09T19:55:12.964Z,101115.13
2022-11-09T19:58:03.639Z,101111.18
2022-11-09T20:01:06.332Z,101113.77
2022-11-09T20:04:00.034Z,101118.41
2022-11-09T20:06:51.607Z,101120.84
2022-11-09T20:09:42.409Z,101114.39
2022-11-09T20:12:52.461Z,101112.31
2022-11-09T20:15:44.267Z,101118.62
2022-11-09T20:18:37.612Z,101120.38
2022-11-09T20:21:28.577Z,101120.23
2022-11-09T20:24:19.722Z,101122.97
2022-11-09T20:27:10.731Z,101118.70
2022-11-09T20:30:01.462Z,101119.09
2022-11-09T20:32:52.235Z,101111.70
2022-11-09T20:35:46.832Z,101116.41
2022-11-09T20:38:37.205Z,101117.77
2022-11-09T20:41:28.421Z,101114.73
2022-11-09T20:44:19.899Z,101122.71
2022-11-09T20:47:10.842Z,101113.28
2022-11-09T20:50:01.834Z,101114.58
2022-11-09T20:52:52.615Z,101109.06
2022-11-09T20:55:44.379Z,101109.80
2022-11-09T20:58:35.482Z,101109.34
2022-11-09T21:01:28.270Z,101111.84
2022-11-09T21:04:19.619Z,101109.70
2022-11-09T21:07:10.570Z,101109.93
2022-11-09T21:10:01.594Z,101109.93
2022-11-09T21:12:56.531Z,101112.28
2022-11-09T21:15:47.711Z,101110.09
2022-11-09T21:18:38.729Z,101115.45
2022-11-09T21:21:35.259Z,101114.63
2022-11-09T21:24:42.974Z,101115.45
2022-11-09T21:27:52.065Z,101119.55
2022-11-09T21:30:43.715Z,101118.77
2022-11-09T21:33:35.418Z,101121.34
2022-11-09T21:36:26.668Z,101121.97
2022-11-09T21:39:17.511Z,101117.78
2022-11-09T21:42:08.765Z,101122.09
2022-11-09T21:45:00.187Z,101123.80
2022-11-09T21:47:51.242Z,101126.77
2022-11-09T21:50:42.399Z,101129.35
2022-11-09T21:53:34.993Z,101134.67
2022-11-09T21:56:26.133Z,101131.19
2022-11-09T21:59:17.481Z,101130.88
2022-11-09T22:02:11.163Z,101136.30
2022-11-09T22:05:02.145Z,101132.34
2022-11-09T22:07:54.595Z,101138.63
2022-11-09T22:10:45.821Z,101136.60
2022-11-09T22:13:56.213Z,101145.47
2022-11-09T22:16:47.091Z,101139.99
2022-11-09T22:19:58.391Z,101139.74
2022-11-09T22:22:49.093Z,101145.32
2022-11-09T22:25:45.230Z,101146.13
2022-11-09T22:28:34.525Z,101144.30
2022-11-09T22:31:25.774Z,101145.07
2022-11-09T22:34:16.791Z,101150.06
2022-11-09T22:37:07.871Z,101148.00
2022-11-09T22:39:59.058Z,101150.26
2022-11-09T22:42:49.722Z,101143.37
2022-11-09T22:45:40.831Z,101144.34
2022-11-09T22:48:34.131Z,101141.21
2022-11-09T22:51:25.330Z,101139.02
2022-11-09T22:54:16.264Z,101140.47
2022-11-09T22:57:07.165Z,101142.50
2022-11-09T22:59:58.199Z,101148.23
2022-11-09T23:02:49.707Z,101141.30
2022-11-09T23:05:42.120Z,101143.95
2022-11-09T23:08:37.977Z,101143.95
2022-11-09T23:11:29.414Z,101143.40
2022-11-09T23:14:22.017Z,101139.92
2022-11-09T23:17:15.805Z,101145.81
2022-11-09T23:20:08.707Z,101146.81
2022-11-09T23:23:00.750Z,101149.97
2022-11-09T23:25:57.629Z,101147.61
2022-11-09T23:28:49.633Z,101145.23
2022-11-09T23:31:41.413Z,101156.47
2022-11-09T23:34:32.141Z,101146.67
2022-11-09T23:37:22.966Z,101150.93
2022-11-09T23:40:14.974Z,101146.96
2022-11-09T23:43:13.514Z,101148.09
2022-11-09T23:46:08.010Z,101143.35
2022-11-09T23:48:58.872Z,101141.58
2022-11-09T23:51:49.544Z,101150.02
2022-11-09T23:54:40.238Z,101150.53
2022-11-09T23:57:31.243Z,101149.08
